Portada
METAR-TAF:

METAR-TAF

Aeroports :

Al Wajh, Aràbia Saudita

latitud: 26-12N, longitud: 036-28E, altitud: 20 m

Observació

L'informe es va fer fa 1 hora i 10 minuts, a les 09:00 UTC
Vent 10 kt del Oest
Temperatura 33°C
Humitat 63%
Pressió 1003 hPa
Visibilitat 10 km o més
sense núvols per sota de 1500 mi sense presència de cumulonimbus.

METAR: OEWJ 230900Z 28010KT CAVOK 33/25 Q1003 NOSIG

Hora: 13:10 (10:10 UTC)

Pronòstic

L'informe es va fer fa 11 hores i 10 minuts, a les 23:00 UTC
Pronòstic vàlid del 23 a les 00 UTC al 24 a les 06 UTC
Vent 3 kt amb direcció variable
Visibilitat: 7000 m
Evolucionant progressivament
l' 23 a les 06 UTC al 23 a les 08 UTC
Vent 12 kt del Nord-Oest
Visibilitat 10 km o més
sense núvols per sota de 1500 mi sense presència de cumulonimbus.
Evolucionant progressivament
l' 23 a les 18 UTC al 23 a les 20 UTC
Vent 3 kt amb direcció variable

TAF: OEWJ 222300Z 2300/2406 VRB03KT 7000 NSC BECMG 2306/2308 32012KT CAVOK BECMG 2318/2320 VRB03KT

Observacions i pronòstics meteorològics de més de 4000 aeroports (METAR i TAF).

Les estacions disponibles són els punts grocs i vermells al mapa.

Posi el ratolí al punt desitjat per veure el nom de l'estació.

Feu clic per veure les observacions i els pronòstics meteorològics.

Per canviar el mapa: feu clic els botons verds amb una creu de color negre per apropar; al botó verd amb un guió per allunyar la imatge; o en les fletxes verdes per a mapes adjacents.


METAR-TAF: